createdAt,value
2018-04-05T00:00:22.723Z,0.00
2018-04-05T00:01:22.664Z,0.00
2018-04-05T00:02:22.605Z,0.00
2018-04-05T00:03:22.546Z,0.00
2018-04-05T00:04:22.486Z,0.00
2018-04-05T00:05:22.430Z,0.00
2018-04-05T00:06:22.371Z,0.00
2018-04-05T00:07:22.314Z,0.00
2018-04-05T00:08:22.255Z,0.00
2018-04-05T00:09:22.195Z,0.00
2018-04-05T00:10:22.136Z,0.00
2018-04-05T00:11:22.077Z,0.00
2018-04-05T00:12:22.018Z,0.00
2018-04-05T00:13:21.959Z,0.00
2018-04-05T00:14:21.902Z,0.00
2018-04-05T00:15:21.843Z,0.00
2018-04-05T00:16:21.784Z,0.00
2018-04-05T00:17:21.728Z,0.00
2018-04-05T00:18:21.669Z,0.00
2018-04-05T00:19:21.610Z,0.00
2018-04-05T00:20:21.550Z,0.00
2018-04-05T00:21:21.494Z,0.00
2018-04-05T00:22:21.436Z,0.00
2018-04-05T00:23:21.378Z,0.00
2018-04-05T00:24:21.316Z,0.00
2018-04-05T00:25:21.273Z,0.00
2018-04-05T00:26:21.200Z,0.00
2018-04-05T00:27:21.141Z,0.00
2018-04-05T00:28:21.084Z,0.00
2018-04-05T00:29:21.025Z,0.00
2018-04-05T00:30:20.964Z,0.00
2018-04-05T00:31:20.906Z,0.00
2018-04-05T00:32:20.855Z,0.00
2018-04-05T00:33:20.790Z,0.00
2018-04-05T00:34:20.731Z,0.00
2018-04-05T00:35:20.672Z,0.00
2018-04-05T00:36:20.616Z,0.00
2018-04-05T00:37:20.554Z,0.00
2018-04-05T00:38:20.495Z,0.00
2018-04-05T00:39:20.446Z,0.00
2018-04-05T00:40:20.381Z,0.00
2018-04-05T00:41:20.321Z,0.00
2018-04-05T00:42:20.263Z,0.00
2018-04-05T00:43:20.203Z,0.00
2018-04-05T00:44:20.143Z,0.00
2018-04-05T00:45:20.085Z,0.00
2018-04-05T00:46:20.028Z,0.00
2018-04-05T00:47:19.968Z,0.00
2018-04-05T00:48:19.918Z,0.00
2018-04-05T00:49:19.851Z,0.00
2018-04-05T00:50:19.792Z,0.00
2018-04-05T00:51:19.733Z,0.00
2018-04-05T00:52:19.677Z,0.00
2018-04-05T00:53:19.621Z,0.00
2018-04-05T00:54:19.557Z,0.00
2018-04-05T00:55:19.499Z,0.00
2018-04-05T00:56:19.440Z,0.00
2018-04-05T00:57:19.382Z,0.00
2018-04-05T00:58:19.323Z,0.00
2018-04-05T00:59:19.263Z,0.00
2018-04-05T01:00:19.206Z,0.00
2018-04-05T01:01:19.147Z,0.00
2018-04-05T01:02:19.089Z,0.00
2018-04-05T01:03:19.030Z,0.00
2018-04-05T01:04:18.971Z,0.00
2018-04-05T01:05:18.911Z,0.00
2018-04-05T01:06:18.855Z,0.00
2018-04-05T01:07:18.794Z,0.00
2018-04-05T01:08:18.736Z,0.00
2018-04-05T01:09:18.678Z,0.00
2018-04-05T01:10:18.620Z,0.00
2018-04-05T01:11:18.560Z,0.00
2018-04-05T01:12:18.504Z,0.00
2018-04-05T01:13:18.442Z,0.00
2018-04-05T01:14:18.387Z,0.00
2018-04-05T01:15:18.323Z,0.00
2018-04-05T01:16:18.267Z,0.00
2018-04-05T01:17:18.211Z,0.00
2018-04-05T01:18:18.154Z,0.00
2018-04-05T01:19:18.089Z,0.00
2018-04-05T01:20:18.032Z,0.00
2018-04-05T01:21:17.973Z,0.00
2018-04-05T01:22:17.914Z,0.00
2018-04-05T01:23:17.855Z,0.00
2018-04-05T01:24:17.798Z,0.00
2018-04-05T01:25:17.737Z,0.00
2018-04-05T01:26:17.680Z,0.00
2018-04-05T01:27:17.632Z,0.00
2018-04-05T01:28:17.568Z,0.00
2018-04-05T01:29:17.504Z,0.00
2018-04-05T01:30:17.445Z,0.00
2018-04-05T01:31:17.385Z,0.00
2018-04-05T01:32:17.326Z,0.00
2018-04-05T01:33:17.269Z,0.00
2018-04-05T01:34:17.215Z,0.00
2018-04-05T01:35:17.151Z,0.00
2018-04-05T01:36:17.093Z,0.00
2018-04-05T01:37:17.033Z,0.00
2018-04-05T01:38:16.974Z,0.00
2018-04-05T01:39:16.917Z,0.00
2018-04-05T01:40:16.858Z,0.00
2018-04-05T01:41:16.800Z,0.00
2018-04-05T01:42:16.741Z,0.00
2018-04-05T01:43:16.681Z,0.00
2018-04-05T01:44:16.628Z,0.00
2018-04-05T01:45:16.572Z,0.00
2018-04-05T01:46:16.507Z,0.00
2018-04-05T01:47:16.450Z,0.00
2018-04-05T01:48:16.388Z,0.00
2018-04-05T01:49:16.328Z,0.00
2018-04-05T01:50:16.268Z,0.00
2018-04-05T01:51:16.211Z,0.00
2018-04-05T01:52:16.152Z,0.00
2018-04-05T01:53:16.092Z,0.00
2018-04-05T01:54:16.035Z,0.00
2018-04-05T01:55:15.977Z,0.00
2018-04-05T01:56:15.915Z,0.00
2018-04-05T01:57:15.859Z,0.00
2018-04-05T01:58:15.799Z,0.00
2018-04-05T01:59:15.740Z,0.00
2018-04-05T02:00:15.682Z,0.00
2018-04-05T02:01:15.622Z,0.00
2018-04-05T02:02:15.562Z,0.00
2018-04-05T02:03:15.505Z,0.00
2018-04-05T02:04:15.445Z,0.00
2018-04-05T02:05:15.386Z,0.00
2018-04-05T02:06:15.334Z,0.00
2018-04-05T02:07:15.270Z,0.00
2018-04-05T02:08:15.218Z,0.00
2018-04-05T02:09:15.152Z,0.00
2018-04-05T02:10:15.095Z,0.00
2018-04-05T02:11:15.034Z,0.00
2018-04-05T02:12:14.977Z,0.00
2018-04-05T02:13:14.917Z,0.00
2018-04-05T02:14:14.859Z,0.00
2018-04-05T02:15:14.798Z,0.00
2018-04-05T02:16:14.740Z,0.00
2018-04-05T02:17:14.681Z,0.00
2018-04-05T02:18:14.624Z,0.00
2018-04-05T02:19:14.563Z,0.00
2018-04-05T02:20:14.512Z,0.00
2018-04-05T02:21:14.456Z,0.00
2018-04-05T02:22:14.388Z,0.00
2018-04-05T02:23:14.329Z,0.00
2018-04-05T02:24:14.270Z,0.00
2018-04-05T02:25:14.214Z,0.00
2018-04-05T02:26:14.154Z,0.00
2018-04-05T02:27:14.094Z,0.00
2018-04-05T02:28:14.034Z,0.00
2018-04-05T02:29:13.977Z,0.00
2018-04-05T02:30:13.918Z,0.00
2018-04-05T02:31:13.859Z,0.00
2018-04-05T02:32:13.800Z,0.00
2018-04-05T02:33:13.742Z,0.00
2018-04-05T02:34:13.685Z,0.00
2018-04-05T02:35:13.627Z,0.00
2018-04-05T02:36:13.566Z,0.00
2018-04-05T02:37:13.508Z,0.00
2018-04-05T02:38:13.448Z,0.00
2018-04-05T02:39:13.392Z,0.00
2018-04-05T02:40:13.329Z,0.00
2018-04-05T02:41:13.272Z,0.00
2018-04-05T02:42:13.214Z,0.00
2018-04-05T02:43:13.154Z,0.00
2018-04-05T02:44:13.098Z,0.00
2018-04-05T02:45:13.038Z,0.00
2018-04-05T02:46:12.993Z,0.00
2018-04-05T02:47:12.918Z,0.00
2018-04-05T02:48:12.859Z,0.00
2018-04-05T02:49:12.801Z,0.00
2018-04-05T02:50:12.740Z,0.00
2018-04-05T02:51:12.683Z,0.00
2018-04-05T02:52:12.622Z,0.00
2018-04-05T02:53:12.562Z,0.00
2018-04-05T02:54:12.504Z,0.00
2018-04-05T02:55:12.444Z,0.00
2018-04-05T02:56:12.387Z,0.00
2018-04-05T02:57:12.327Z,0.00
2018-04-05T02:58:12.268Z,0.00
2018-04-05T02:59:12.209Z,0.00
2018-04-05T03:00:12.152Z,0.00
2018-04-05T03:01:12.094Z,0.00
2018-04-05T03:02:12.033Z,0.00
2018-04-05T03:03:11.971Z,0.00
2018-04-05T03:04:11.914Z,0.00
2018-04-05T03:05:11.857Z,0.00
2018-04-05T03:06:11.814Z,0.00
2018-04-05T03:07:11.736Z,0.00
2018-04-05T03:08:11.677Z,0.00
2018-04-05T03:09:11.617Z,0.00
2018-04-05T03:10:11.563Z,0.00
2018-04-05T03:11:11.499Z,0.00
2018-04-05T03:12:11.444Z,0.00
2018-04-05T03:13:11.384Z,0.00
2018-04-05T03:14:11.324Z,0.00
2018-04-05T03:15:11.264Z,0.00
2018-04-05T03:16:11.205Z,0.00
2018-04-05T03:17:11.153Z,0.00
2018-04-05T03:18:11.091Z,0.00
2018-04-05T03:19:11.036Z,0.00
2018-04-05T03:20:10.969Z,0.00
2018-04-05T03:21:10.909Z,0.00
2018-04-05T03:22:10.853Z,0.00
2018-04-05T03:23:10.791Z,0.00
2018-04-05T03:24:10.735Z,0.00
2018-04-05T03:25:10.677Z,0.00
2018-04-05T03:26:10.618Z,0.00
2018-04-05T03:27:10.558Z,0.00
2018-04-05T03:28:10.498Z,0.00
2018-04-05T03:29:10.439Z,0.00
2018-04-05T03:30:10.382Z,0.00
2018-04-05T03:31:10.328Z,0.00
2018-04-05T03:32:10.264Z,0.00
2018-04-05T03:33:10.207Z,0.00
2018-04-05T03:34:10.146Z,0.00
2018-04-05T03:35:10.086Z,0.00
2018-04-05T03:36:10.031Z,0.00
2018-04-05T03:37:09.971Z,0.00
2018-04-05T03:38:09.913Z,0.00
2018-04-05T03:39:09.852Z,0.00
2018-04-05T03:40:09.794Z,0.00
2018-04-05T03:41:09.788Z,0.00
2018-04-05T03:42:09.677Z,0.00
2018-04-05T03:43:09.618Z,0.00
2018-04-05T03:44:09.560Z,0.00
2018-04-05T03:45:09.504Z,0.00
2018-04-05T03:46:09.444Z,0.00
2018-04-05T03:47:09.383Z,0.00
2018-04-05T03:48:09.326Z,0.00
2018-04-05T03:49:09.265Z,0.00
2018-04-05T03:50:09.209Z,0.00
2018-04-05T03:51:09.148Z,0.00
2018-04-05T03:52:09.091Z,0.00
2018-04-05T03:53:09.032Z,0.00
2018-04-05T03:54:08.981Z,0.00
2018-04-05T03:55:08.914Z,0.00
2018-04-05T03:56:08.857Z,0.00
2018-04-05T03:57:08.799Z,0.00
2018-04-05T03:58:08.741Z,0.00
2018-04-05T03:59:08.680Z,0.00
2018-04-05T04:00:08.622Z,0.00
2018-04-05T04:01:08.563Z,0.00
2018-04-05T04:02:08.506Z,0.00
2018-04-05T04:03:08.445Z,0.00
2018-04-05T04:04:08.416Z,0.00
2018-04-05T04:05:08.329Z,0.00
2018-04-05T04:06:08.272Z,0.00
2018-04-05T04:07:08.212Z,0.00
2018-04-05T04:08:08.154Z,0.00
2018-04-05T04:09:08.095Z,0.00
2018-04-05T04:10:08.040Z,0.00
2018-04-05T04:11:07.977Z,0.00
2018-04-05T04:12:07.918Z,0.00
2018-04-05T04:13:07.861Z,0.00
2018-04-05T04:14:07.804Z,0.00
2018-04-05T04:15:07.744Z,0.00
2018-04-05T04:16:07.685Z,0.00
2018-04-05T04:17:07.688Z,0.00
2018-04-05T04:18:07.569Z,0.00
2018-04-05T04:19:07.516Z,0.00
2018-04-05T04:20:07.451Z,0.00
2018-04-05T04:21:07.393Z,0.00
2018-04-05T04:22:07.335Z,0.00
2018-04-05T04:23:07.276Z,0.00
2018-04-05T04:24:07.219Z,0.00
2018-04-05T04:25:07.159Z,0.00
2018-04-05T04:26:07.106Z,0.00
2018-04-05T04:27:07.042Z,0.00
2018-04-05T04:28:06.985Z,0.00
2018-04-05T04:29:06.925Z,0.00
2018-04-05T04:30:06.866Z,0.00
2018-04-05T04:31:06.811Z,0.00
2018-04-05T04:32:06.750Z,0.00
2018-04-05T04:33:06.695Z,0.00
2018-04-05T04:34:06.636Z,0.00
2018-04-05T04:35:06.577Z,0.00
2018-04-05T04:36:06.518Z,0.00
2018-04-05T04:37:06.462Z,0.00
2018-04-05T04:38:06.401Z,0.00
2018-04-05T04:39:06.343Z,0.00
2018-04-05T04:40:06.283Z,0.00
2018-04-05T04:41:06.226Z,0.00
2018-04-05T04:42:06.167Z,0.00
2018-04-05T04:43:06.107Z,0.00
2018-04-05T04:44:06.050Z,0.00
2018-04-05T04:45:05.991Z,0.00
2018-04-05T04:46:05.935Z,0.00
2018-04-05T04:47:05.876Z,0.00
2018-04-05T04:48:05.816Z,0.00
2018-04-05T04:49:05.761Z,0.00
2018-04-05T04:50:05.701Z,0.00
2018-04-05T04:51:05.642Z,0.00
2018-04-05T04:52:05.584Z,0.00
2018-04-05T04:53:05.524Z,0.00
2018-04-05T04:54:05.466Z,0.00
2018-04-05T04:55:05.408Z,0.00
2018-04-05T04:56:05.349Z,0.00
2018-04-05T04:57:05.297Z,0.00
2018-04-05T04:58:05.232Z,5.63
2018-04-05T04:59:05.174Z,5.63
2018-04-05T05:00:05.117Z,5.63
2018-04-05T05:01:05.065Z,5.63
2018-04-05T05:02:05.002Z,5.63
2018-04-05T05:03:04.939Z,5.63
2018-04-05T05:04:04.882Z,5.63
2018-04-05T05:05:04.824Z,5.63
2018-04-05T05:06:04.771Z,5.63
2018-04-05T05:07:04.705Z,5.63
2018-04-05T05:08:04.647Z,5.63
2018-04-05T05:09:04.589Z,5.63
2018-04-05T05:10:04.536Z,5.63
2018-04-05T05:11:04.473Z,5.63
2018-04-05T05:12:04.413Z,11.25
2018-04-05T05:13:04.354Z,11.25
2018-04-05T05:14:04.298Z,11.25
2018-04-05T05:15:04.244Z,11.25
2018-04-05T05:16:04.180Z,11.25
2018-04-05T05:17:04.122Z,11.25
2018-04-05T05:18:04.063Z,11.25
2018-04-05T05:19:04.217Z,11.25
2018-04-05T05:20:03.956Z,11.25
2018-04-05T05:21:03.891Z,11.25
2018-04-05T05:22:03.831Z,11.25
2018-04-05T05:23:03.769Z,11.25
2018-04-05T05:24:03.712Z,11.25
2018-04-05T05:25:03.656Z,11.25
2018-04-05T05:26:03.595Z,11.25
2018-04-05T05:27:03.538Z,11.25
2018-04-05T05:28:03.478Z,11.25
2018-04-05T05:29:03.420Z,16.88
2018-04-05T05:30:03.362Z,16.88
2018-04-05T05:31:03.303Z,16.88
2018-04-05T05:32:03.247Z,22.50
2018-04-05T05:33:03.189Z,22.50
2018-04-05T05:34:03.129Z,22.50
2018-04-05T05:35:03.069Z,22.50
2018-04-05T05:36:03.014Z,16.88
2018-04-05T05:37:02.953Z,16.88
2018-04-05T05:38:02.895Z,16.88
2018-04-05T05:39:02.835Z,16.88
2018-04-05T05:40:02.778Z,16.88
2018-04-05T05:41:02.721Z,16.88
2018-04-05T05:42:02.661Z,16.88
2018-04-05T05:43:02.603Z,16.88
2018-04-05T05:44:02.546Z,16.88
2018-04-05T05:45:02.485Z,28.13
2018-04-05T05:46:02.430Z,33.75
2018-04-05T05:47:02.370Z,28.13
2018-04-05T05:48:02.310Z,28.13
2018-04-05T05:49:02.252Z,28.13
2018-04-05T05:50:02.198Z,28.13
2018-04-05T05:51:02.136Z,28.13
2018-04-05T05:52:02.083Z,28.13
2018-04-05T05:53:02.019Z,33.75
2018-04-05T05:54:01.962Z,33.75
2018-04-05T05:55:01.904Z,33.75
2018-04-05T05:56:01.845Z,39.38
2018-04-05T05:57:01.787Z,45.00
2018-04-05T05:58:01.728Z,45.00
2018-04-05T05:59:01.671Z,45.00
2018-04-05T06:00:01.612Z,45.00
2018-04-05T06:01:01.553Z,45.00
2018-04-05T06:02:01.497Z,50.63
2018-04-05T06:03:01.436Z,50.63
2018-04-05T06:04:01.380Z,50.63
2018-04-05T06:05:01.322Z,45.00
2018-04-05T06:06:01.263Z,56.25
2018-04-05T06:07:01.203Z,56.25
2018-04-05T06:08:01.147Z,50.63
2018-04-05T06:09:01.090Z,50.63
2018-04-05T06:10:01.031Z,50.63
2018-04-05T06:11:00.971Z,39.38
2018-04-05T06:12:00.915Z,39.38
2018-04-05T06:13:00.856Z,45.00
2018-04-05T06:14:00.799Z,45.00
2018-04-05T06:15:00.739Z,45.00
2018-04-05T06:16:00.694Z,50.63
2018-04-05T06:17:00.623Z,50.63
2018-04-05T06:18:00.594Z,56.25
2018-04-05T06:19:00.507Z,56.25
2018-04-05T06:20:00.555Z,56.25
2018-04-05T06:21:00.396Z,56.25
2018-04-05T06:22:00.335Z,50.63
2018-04-05T06:23:00.277Z,50.63
2018-04-05T06:24:00.219Z,45.00
2018-04-05T06:25:00.165Z,45.00
2018-04-05T06:26:00.107Z,50.63
2018-04-05T06:27:00.053Z,50.63
2018-04-05T06:27:59.989Z,50.63
2018-04-05T06:28:59.935Z,50.63
2018-04-05T06:29:59.880Z,50.63
2018-04-05T06:30:59.816Z,50.63
2018-04-05T06:31:59.758Z,50.63
2018-04-05T06:32:59.704Z,45.00
2018-04-05T06:33:59.643Z,45.00
2018-04-05T06:34:59.584Z,50.63
2018-04-05T06:35:59.534Z,56.25
2018-04-05T06:36:59.470Z,50.63
2018-04-05T06:37:59.413Z,56.25
2018-04-05T06:38:59.354Z,56.25
2018-04-05T06:39:59.298Z,56.25
2018-04-05T06:40:59.240Z,50.63
2018-04-05T06:41:59.183Z,50.63
2018-04-05T06:42:59.129Z,50.63
2018-04-05T06:43:59.067Z,56.25
2018-04-05T06:44:59.022Z,56.25
2018-04-05T06:45:58.958Z,56.25
2018-04-05T06:46:58.923Z,56.25
2018-04-05T06:47:58.836Z,56.25
2018-04-05T06:48:58.780Z,56.25
2018-04-05T06:49:58.723Z,56.25
2018-04-05T06:50:58.666Z,56.25
2018-04-05T06:51:58.607Z,56.25
2018-04-05T06:52:58.550Z,56.25
2018-04-05T06:53:58.492Z,56.25
2018-04-05T06:54:58.436Z,56.25
2018-04-05T06:55:58.378Z,56.25
2018-04-05T06:56:58.321Z,56.25
2018-04-05T06:57:58.264Z,56.25
2018-04-05T06:58:58.206Z,56.25
2018-04-05T06:59:58.150Z,56.25
2018-04-05T07:00:58.092Z,56.25
2018-04-05T07:01:58.035Z,56.25
2018-04-05T07:02:57.991Z,61.88
2018-04-05T07:03:57.919Z,61.88
2018-04-05T07:04:57.866Z,56.25
2018-04-05T07:05:57.806Z,56.25
2018-04-05T07:06:57.748Z,56.25
2018-04-05T07:07:57.690Z,50.63
2018-04-05T07:08:57.633Z,56.25
2018-04-05T07:09:57.577Z,56.25
2018-04-05T07:10:57.520Z,61.88
2018-04-05T07:11:57.460Z,50.63
2018-04-05T07:12:57.404Z,56.25
2018-04-05T07:13:57.349Z,56.25
2018-04-05T07:14:57.289Z,56.25
2018-04-05T07:15:57.231Z,56.25
2018-04-05T07:16:57.237Z,61.88
2018-04-05T07:17:57.118Z,78.75
2018-04-05T07:18:57.063Z,84.38
2018-04-05T07:19:57.005Z,90.00
2018-04-05T07:20:56.947Z,90.00
2018-04-05T07:21:56.889Z,95.63
2018-04-05T07:22:56.830Z,78.75
2018-04-05T07:23:56.774Z,90.00
2018-04-05T07:24:56.718Z,95.63
2018-04-05T07:25:56.662Z,101.25
2018-04-05T07:26:56.605Z,95.63
2018-04-05T07:27:56.547Z,101.25
2018-04-05T07:28:56.489Z,106.88
2018-04-05T07:29:56.433Z,106.88
2018-04-05T07:30:56.376Z,106.88
2018-04-05T07:31:56.320Z,101.25
2018-04-05T07:32:56.263Z,90.00
2018-04-05T07:33:56.208Z,90.00
2018-04-05T07:34:56.151Z,73.13
2018-04-05T07:35:56.094Z,61.88
2018-04-05T07:36:56.037Z,56.25
2018-04-05T07:37:55.980Z,61.88
2018-04-05T07:38:55.922Z,61.88
2018-04-05T07:39:55.866Z,50.63
2018-04-05T07:40:55.814Z,56.25
2018-04-05T07:41:55.798Z,61.88
2018-04-05T07:42:55.696Z,50.63
2018-04-05T07:43:55.641Z,45.00
2018-04-05T07:44:55.585Z,50.63
2018-04-05T07:45:55.529Z,50.63
2018-04-05T07:46:55.473Z,39.38
2018-04-05T07:47:55.415Z,33.75
2018-04-05T07:48:55.361Z,39.38
2018-04-05T07:49:55.303Z,45.00
2018-04-05T07:50:55.251Z,45.00
2018-04-05T07:51:55.189Z,45.00
2018-04-05T07:52:55.134Z,45.00
2018-04-05T07:53:55.075Z,50.63
2018-04-05T07:54:55.018Z,50.63
2018-04-05T07:55:54.962Z,56.25
2018-04-05T07:56:54.907Z,56.25
2018-04-05T07:57:54.849Z,67.50
2018-04-05T07:58:54.800Z,61.88
2018-04-05T07:59:54.738Z,45.00
2018-04-05T08:00:54.679Z,39.38
2018-04-05T08:01:54.622Z,39.38
2018-04-05T08:02:54.564Z,39.38
2018-04-05T08:03:54.509Z,39.38
2018-04-05T08:04:54.451Z,39.38
2018-04-05T08:05:54.395Z,45.00
2018-04-05T08:06:54.335Z,56.25
2018-04-05T08:07:54.280Z,50.63
2018-04-05T08:08:54.223Z,45.00
2018-04-05T08:09:54.167Z,39.38
2018-04-05T08:10:54.108Z,45.00
2018-04-05T08:11:54.105Z,39.38
2018-04-05T08:12:53.995Z,45.00
2018-04-05T08:13:53.942Z,56.25
2018-04-05T08:14:53.881Z,61.88
2018-04-05T08:15:53.824Z,56.25
2018-04-05T08:16:53.768Z,45.00
2018-04-05T08:17:53.712Z,45.00
2018-04-05T08:18:53.653Z,45.00
2018-04-05T08:19:53.599Z,45.00
2018-04-05T08:20:53.541Z,45.00
2018-04-05T08:21:53.484Z,50.63
2018-04-05T08:22:53.427Z,61.88
2018-04-05T08:23:53.370Z,78.75
2018-04-05T08:24:53.317Z,84.38
2018-04-05T08:25:53.292Z,90.00
2018-04-05T08:26:53.201Z,101.25
2018-04-05T08:27:53.142Z,106.88
2018-04-05T08:28:53.085Z,112.50
2018-04-05T08:29:53.030Z,101.25
2018-04-05T08:30:52.972Z,95.63
2018-04-05T08:31:52.916Z,112.50
2018-04-05T08:32:52.858Z,118.13
2018-04-05T08:33:52.802Z,135.00
2018-04-05T08:34:52.747Z,129.38
2018-04-05T08:35:52.689Z,106.88
2018-04-05T08:36:52.634Z,101.25
2018-04-05T08:37:52.582Z,95.63
2018-04-05T08:38:52.519Z,95.63
2018-04-05T08:39:52.462Z,95.63
2018-04-05T08:40:52.405Z,106.88
2018-04-05T08:41:52.349Z,101.25
2018-04-05T08:42:52.297Z,95.63
2018-04-05T08:43:52.236Z,90.00
2018-04-05T08:44:52.180Z,84.38
2018-04-05T08:45:52.126Z,78.75
2018-04-05T08:46:52.067Z,61.88
2018-04-05T08:47:52.010Z,56.25
2018-04-05T08:48:51.957Z,56.25
2018-04-05T08:49:51.898Z,61.88
2018-04-05T08:50:51.841Z,61.88
2018-04-05T08:51:51.784Z,61.88
2018-04-05T08:52:51.729Z,56.25
2018-04-05T08:53:51.673Z,56.25
2018-04-05T08:54:51.616Z,50.63
2018-04-05T08:55:51.585Z,50.63
2018-04-05T08:56:51.503Z,45.00
2018-04-05T08:57:51.445Z,45.00
2018-04-05T08:58:51.390Z,45.00
2018-04-05T08:59:51.333Z,45.00
2018-04-05T09:00:51.279Z,45.00
2018-04-05T09:01:51.221Z,45.00
2018-04-05T09:02:51.165Z,45.00
2018-04-05T09:03:51.106Z,45.00
2018-04-05T09:04:51.049Z,45.00
2018-04-05T09:05:50.994Z,45.00
2018-04-05T09:06:50.935Z,45.00
2018-04-05T09:07:50.879Z,45.00
2018-04-05T09:08:50.823Z,45.00
2018-04-05T09:09:50.766Z,45.00
2018-04-05T09:10:50.710Z,50.63
2018-04-05T09:11:50.659Z,61.88
2018-04-05T09:12:50.597Z,67.50
2018-04-05T09:13:50.539Z,84.38
2018-04-05T09:14:50.483Z,95.63
2018-04-05T09:15:50.425Z,90.00
2018-04-05T09:16:50.374Z,90.00
2018-04-05T09:17:50.318Z,95.63
2018-04-05T09:18:50.255Z,118.13
2018-04-05T09:19:50.200Z,118.13
2018-04-05T09:20:50.144Z,118.13
2018-04-05T09:21:50.086Z,112.50
2018-04-05T09:22:50.030Z,112.50
2018-04-05T09:23:49.974Z,106.88
2018-04-05T09:24:49.915Z,101.25
2018-04-05T09:25:49.860Z,106.88
2018-04-05T09:26:49.802Z,112.50
2018-04-05T09:27:49.746Z,112.50
2018-04-05T09:28:49.711Z,84.38
2018-04-05T09:29:49.635Z,90.00
2018-04-05T09:30:49.577Z,95.63
2018-04-05T09:31:49.521Z,101.25
2018-04-05T09:32:49.467Z,112.50
2018-04-05T09:33:49.409Z,135.00
2018-04-05T09:34:49.353Z,118.13
2018-04-05T09:35:49.297Z,101.25
2018-04-05T09:36:49.243Z,101.25
2018-04-05T09:37:49.186Z,101.25
2018-04-05T09:38:49.130Z,95.63
2018-04-05T09:39:49.074Z,95.63
2018-04-05T09:40:49.024Z,95.63
2018-04-05T09:41:48.973Z,84.38
2018-04-05T09:42:48.910Z,78.75
2018-04-05T09:43:48.853Z,84.38
2018-04-05T09:44:48.798Z,90.00
2018-04-05T09:45:48.741Z,90.00
2018-04-05T09:46:48.727Z,90.00
2018-04-05T09:47:48.630Z,90.00
2018-04-05T09:48:48.577Z,112.50
2018-04-05T09:49:48.521Z,129.38
2018-04-05T09:50:48.464Z,118.13
2018-04-05T09:51:48.410Z,101.25
2018-04-05T09:52:48.353Z,129.38
2018-04-05T09:53:48.298Z,135.00
2018-04-05T09:54:48.241Z,129.38
2018-04-05T09:55:48.184Z,129.38
2018-04-05T09:56:48.136Z,123.75
2018-04-05T09:57:48.074Z,118.13
2018-04-05T09:58:48.021Z,118.13
2018-04-05T09:59:47.962Z,123.75
2018-04-05T10:00:47.907Z,129.38
2018-04-05T10:01:47.853Z,135.00
2018-04-05T10:02:47.796Z,151.88
2018-04-05T10:03:47.740Z,151.88
2018-04-05T10:04:47.685Z,140.63
2018-04-05T10:05:47.633Z,135.00
2018-04-05T10:06:47.574Z,140.63
2018-04-05T10:07:47.520Z,123.75
2018-04-05T10:08:47.469Z,101.25
2018-04-05T10:09:47.478Z,95.63
2018-04-05T10:10:47.353Z,90.00
2018-04-05T10:11:47.302Z,84.38
2018-04-05T10:12:47.244Z,101.25
2018-04-05T10:13:47.189Z,101.25
2018-04-05T10:14:47.133Z,95.63
2018-04-05T10:15:47.084Z,95.63
2018-04-05T10:16:47.023Z,90.00
2018-04-05T10:17:46.968Z,67.50
2018-04-05T10:18:46.912Z,67.50
2018-04-05T10:19:46.857Z,61.88
2018-04-05T10:20:46.801Z,50.63
2018-04-05T10:21:46.761Z,50.63
2018-04-05T10:22:46.691Z,50.63
2018-04-05T10:23:46.636Z,50.63
2018-04-05T10:24:46.584Z,56.25
2018-04-05T10:25:46.527Z,56.25
2018-04-05T10:26:46.468Z,50.63
2018-04-05T10:27:46.417Z,50.63
2018-04-05T10:28:46.360Z,61.88
2018-04-05T10:29:46.305Z,67.50
2018-04-05T10:30:46.248Z,67.50
2018-04-05T10:31:46.194Z,73.13
2018-04-05T10:32:46.139Z,73.13
2018-04-05T10:33:46.082Z,73.13
2018-04-05T10:34:46.025Z,67.50
2018-04-05T10:35:46.050Z,84.38
2018-04-05T10:36:45.916Z,95.63
2018-04-05T10:37:45.858Z,101.25
2018-04-05T10:38:45.801Z,106.88
2018-04-05T10:39:45.747Z,95.63
2018-04-05T10:40:45.691Z,84.38
2018-04-05T10:41:45.695Z,78.75
2018-04-05T10:42:45.581Z,73.13
2018-04-05T10:43:45.523Z,73.13
2018-04-05T10:44:45.467Z,78.75
2018-04-05T10:45:45.412Z,73.13
2018-04-05T10:46:45.355Z,78.75
2018-04-05T10:47:45.301Z,84.38
2018-04-05T10:48:45.245Z,73.13
2018-04-05T10:49:45.190Z,56.25
2018-04-05T10:50:45.129Z,50.63
2018-04-05T10:51:45.075Z,50.63
2018-04-05T10:52:45.018Z,50.63
2018-04-05T10:53:44.961Z,39.38
2018-04-05T10:54:44.905Z,28.13
2018-04-05T10:55:44.853Z,28.13
2018-04-05T10:56:44.791Z,33.75
2018-04-05T10:57:44.736Z,33.75
2018-04-05T10:58:44.684Z,33.75
2018-04-05T10:59:44.621Z,39.38
2018-04-05T11:00:44.564Z,39.38
2018-04-05T11:01:44.508Z,56.25
2018-04-05T11:02:44.450Z,78.75
2018-04-05T11:03:44.404Z,112.50
2018-04-05T11:04:44.338Z,135.00
2018-04-05T11:05:44.281Z,129.38
2018-04-05T11:06:44.223Z,112.50
2018-04-05T11:07:44.166Z,106.88
2018-04-05T11:08:44.110Z,101.25
2018-04-05T11:09:44.051Z,106.88
2018-04-05T11:10:43.995Z,118.13
2018-04-05T11:11:43.939Z,135.00
2018-04-05T11:12:43.880Z,146.25
2018-04-05T11:13:43.824Z,140.63
2018-04-05T11:14:43.765Z,140.63
2018-04-05T11:15:43.709Z,123.75
2018-04-05T11:16:43.652Z,101.25
2018-04-05T11:17:43.596Z,101.25
2018-04-05T11:18:43.539Z,95.63
2018-04-05T11:19:43.491Z,95.63
2018-04-05T11:20:43.429Z,106.88
2018-04-05T11:21:43.370Z,95.63
2018-04-05T11:22:43.311Z,95.63
2018-04-05T11:23:43.254Z,90.00
2018-04-05T11:24:43.198Z,90.00
2018-04-05T11:25:43.142Z,90.00
2018-04-05T11:26:43.084Z,90.00
2018-04-05T11:27:43.028Z,84.38
2018-04-05T11:28:42.974Z,78.75
2018-04-05T11:29:42.914Z,90.00
2018-04-05T11:30:42.857Z,84.38
2018-04-05T11:31:42.802Z,84.38
2018-04-05T11:32:42.744Z,78.75
2018-04-05T11:33:42.690Z,78.75
2018-04-05T11:34:42.633Z,78.75
2018-04-05T11:35:42.581Z,73.13
2018-04-05T11:36:42.519Z,73.13
2018-04-05T11:37:42.463Z,61.88
2018-04-05T11:38:42.405Z,61.88
2018-04-05T11:39:42.349Z,67.50
2018-04-05T11:40:42.295Z,84.38
2018-04-05T11:41:42.237Z,84.38
2018-04-05T11:42:42.178Z,90.00
2018-04-05T11:43:42.122Z,90.00
2018-04-05T11:44:42.066Z,95.63
2018-04-05T11:45:42.009Z,106.88
2018-04-05T11:46:41.951Z,106.88
2018-04-05T11:47:41.894Z,101.25
2018-04-05T11:48:41.841Z,101.25
2018-04-05T11:49:41.785Z,112.50
2018-04-05T11:50:41.724Z,118.13
2018-04-05T11:51:41.667Z,129.38
2018-04-05T11:52:41.611Z,129.38
2018-04-05T11:53:41.553Z,129.38
2018-04-05T11:54:41.496Z,146.25
2018-04-05T11:55:41.439Z,106.88
2018-04-05T11:56:41.386Z,118.13
2018-04-05T11:57:41.330Z,123.75
2018-04-05T11:58:41.270Z,129.38
2018-04-05T11:59:41.212Z,140.63
2018-04-05T12:00:41.162Z,129.38
2018-04-05T12:01:41.102Z,118.13
2018-04-05T12:02:41.044Z,118.13
2018-04-05T12:03:40.991Z,101.25
2018-04-05T12:04:40.930Z,84.38
2018-04-05T12:05:40.874Z,56.25
2018-04-05T12:06:40.817Z,50.63
2018-04-05T12:07:40.816Z,39.38
2018-04-05T12:08:40.705Z,22.50
2018-04-05T12:09:40.648Z,16.88
2018-04-05T12:10:40.592Z,22.50
2018-04-05T12:11:40.539Z,39.38
2018-04-05T12:12:40.477Z,45.00
2018-04-05T12:13:40.422Z,39.38
2018-04-05T12:14:40.365Z,39.38
2018-04-05T12:15:40.306Z,39.38
2018-04-05T12:16:40.249Z,39.38
2018-04-05T12:17:40.192Z,45.00
2018-04-05T12:18:40.135Z,39.38
2018-04-05T12:19:40.077Z,39.38
2018-04-05T12:20:40.019Z,39.38
2018-04-05T12:21:39.963Z,39.38
2018-04-05T12:22:39.904Z,39.38
2018-04-05T12:23:39.846Z,39.38
2018-04-05T12:24:39.790Z,45.00
2018-04-05T12:25:39.730Z,50.63
2018-04-05T12:26:39.670Z,56.25
2018-04-05T12:27:39.618Z,67.50
2018-04-05T12:28:39.560Z,73.13
2018-04-05T12:29:39.498Z,67.50
2018-04-05T12:30:39.439Z,67.50
2018-04-05T12:31:39.381Z,67.50
2018-04-05T12:32:39.324Z,67.50
2018-04-05T12:33:39.389Z,73.13
2018-04-05T12:34:39.207Z,73.13
2018-04-05T12:35:39.148Z,61.88
2018-04-05T12:36:39.090Z,73.13
2018-04-05T12:37:39.033Z,78.75
2018-04-05T12:38:38.974Z,78.75
2018-04-05T12:39:38.914Z,84.38
2018-04-05T12:40:38.857Z,90.00
2018-04-05T12:41:38.802Z,84.38
2018-04-05T12:42:38.742Z,90.00
2018-04-05T12:43:38.682Z,90.00
2018-04-05T12:44:38.623Z,101.25
2018-04-05T12:45:38.564Z,90.00
2018-04-05T12:46:38.505Z,90.00
2018-04-05T12:47:38.449Z,90.00
2018-04-05T12:48:38.390Z,73.13
2018-04-05T12:49:38.333Z,78.75
2018-04-05T12:50:38.278Z,78.75
2018-04-05T12:51:38.218Z,84.38
2018-04-05T12:52:38.211Z,78.75
2018-04-05T12:53:38.104Z,95.63
2018-04-05T12:54:38.041Z,84.38
2018-04-05T12:55:37.988Z,56.25
2018-04-05T12:56:37.925Z,67.50
2018-04-05T12:57:37.867Z,61.88
2018-04-05T12:58:37.809Z,50.63